createdAt,value
2023-03-06T00:54:53.139Z,26.39
2023-03-06T00:55:54.063Z,26.38
2023-03-06T00:56:54.007Z,26.38
2023-03-06T00:57:53.957Z,26.38
2023-03-06T00:58:53.910Z,26.38
2023-03-06T00:59:53.868Z,26.38
2023-03-06T01:00:53.858Z,26.38
2023-03-06T01:01:53.835Z,26.38
2023-03-06T01:02:53.801Z,26.35
2023-03-06T01:03:53.669Z,26.38
2023-03-06T01:04:53.627Z,26.35
2023-03-06T01:05:53.581Z,26.34
2023-03-06T01:06:53.525Z,26.35
2023-03-06T01:07:53.480Z,26.35
2023-03-06T01:08:53.438Z,26.35
2023-03-06T01:09:53.386Z,26.35
2023-03-06T01:10:53.371Z,26.34
2023-03-06T01:11:53.298Z,26.35
2023-03-06T01:12:53.258Z,26.34
2023-03-06T01:13:53.225Z,26.34
2023-03-06T01:14:53.186Z,26.32
2023-03-06T01:15:53.125Z,26.34
2023-03-06T01:16:53.079Z,26.32
2023-03-06T01:17:53.023Z,26.35
2023-03-06T01:18:52.987Z,26.32
2023-03-06T01:19:52.939Z,26.32
2023-03-06T01:20:52.882Z,26.34
2023-03-06T01:21:52.839Z,26.31
2023-03-06T01:22:52.783Z,26.32
2023-03-06T01:23:52.767Z,26.32
2023-03-06T01:24:52.684Z,26.31
2023-03-06T01:25:52.637Z,26.28
2023-03-06T01:26:52.621Z,26.31
2023-03-06T01:27:52.589Z,26.31
2023-03-06T01:28:52.487Z,26.31
2023-03-06T01:29:52.436Z,26.30
2023-03-06T01:30:52.395Z,26.31
2023-03-06T01:31:52.454Z,26.31
2023-03-06T01:32:52.300Z,26.32
2023-03-06T01:33:52.255Z,26.28
2023-03-06T01:34:52.204Z,26.32
2023-03-06T01:35:52.202Z,26.30
2023-03-06T01:36:52.121Z,26.31
2023-03-06T01:37:52.079Z,26.30
2023-03-06T01:38:52.020Z,26.31
2023-03-06T01:39:51.974Z,26.28
2023-03-06T01:40:51.926Z,26.31
2023-03-06T01:41:51.879Z,26.30
2023-03-06T01:42:51.872Z,26.30
2023-03-06T01:43:51.797Z,26.28
2023-03-06T01:44:51.752Z,26.30
2023-03-06T01:45:51.773Z,26.28
2023-03-06T01:46:51.638Z,26.31
2023-03-06T01:47:51.596Z,26.28
2023-03-06T01:48:51.544Z,26.30
2023-03-06T01:49:51.501Z,26.30
2023-03-06T01:50:51.507Z,26.28
2023-03-06T01:51:51.431Z,26.30
2023-03-06T01:52:51.376Z,26.28
2023-03-06T01:53:51.347Z,26.28
2023-03-06T01:54:51.297Z,26.30
2023-03-06T01:55:51.276Z,26.28
2023-03-06T01:56:51.268Z,26.27
2023-03-06T01:57:51.157Z,26.30
2023-03-06T01:58:51.131Z,26.28
2023-03-06T01:59:51.072Z,26.30
2023-03-06T02:00:51.118Z,26.27
2023-03-06T02:01:50.976Z,26.27
2023-03-06T02:02:50.935Z,26.27
2023-03-06T02:03:50.891Z,26.27
2023-03-06T02:04:50.848Z,26.26
2023-03-06T02:05:50.805Z,26.26
2023-03-06T02:06:50.760Z,26.27
2023-03-06T02:07:50.719Z,26.27
2023-03-06T02:08:50.667Z,26.27
2023-03-06T02:09:50.628Z,26.28
2023-03-06T02:10:50.579Z,26.28
2023-03-06T02:11:50.571Z,26.26
2023-03-06T02:12:50.493Z,26.27
2023-03-06T02:13:50.447Z,26.27
2023-03-06T02:14:50.429Z,26.27
2023-03-06T02:15:50.386Z,26.24
2023-03-06T02:16:50.393Z,26.26
2023-03-06T02:17:50.264Z,26.27
2023-03-06T02:18:50.224Z,26.26
2023-03-06T02:19:50.210Z,26.26
2023-03-06T02:20:50.169Z,26.26
2023-03-06T02:21:50.131Z,26.26
2023-03-06T02:22:50.139Z,26.23
2023-03-06T02:23:50.025Z,26.23
2023-03-06T02:24:49.983Z,26.26
2023-03-06T02:25:49.939Z,26.24
2023-03-06T02:26:49.927Z,26.26
2023-03-06T02:27:49.874Z,26.27
2023-03-06T02:28:49.803Z,26.24
2023-03-06T02:29:49.755Z,26.27
2023-03-06T02:30:49.817Z,26.27
2023-03-06T02:31:49.651Z,26.24
2023-03-06T02:32:49.659Z,26.24
2023-03-06T02:33:49.554Z,26.24
2023-03-06T02:34:49.560Z,26.24
2023-03-06T02:35:49.485Z,26.23
2023-03-06T02:36:49.409Z,26.23
2023-03-06T02:37:49.357Z,26.23
2023-03-06T02:38:49.362Z,26.21
2023-03-06T02:39:49.265Z,26.21
2023-03-06T02:40:49.225Z,26.23
2023-03-06T02:41:49.181Z,26.23
2023-03-06T02:42:49.141Z,26.24
2023-03-06T02:43:49.107Z,26.23
2023-03-06T02:44:49.045Z,26.24
2023-03-06T02:45:49.067Z,26.23
2023-03-06T02:46:48.979Z,26.24
2023-03-06T02:47:48.913Z,26.23
2023-03-06T02:48:48.893Z,26.21
2023-03-06T02:49:48.844Z,26.21
2023-03-06T02:50:48.783Z,26.23
2023-03-06T02:51:48.743Z,26.23
2023-03-06T02:52:48.696Z,26.24
2023-03-06T02:53:48.668Z,26.23
2023-03-06T02:54:48.672Z,26.23
2023-03-06T02:55:48.582Z,26.26
2023-03-06T02:56:48.530Z,26.23
2023-03-06T02:57:48.483Z,26.24
2023-03-06T02:58:48.438Z,26.23
2023-03-06T02:59:48.419Z,26.24
2023-03-06T03:00:48.346Z,26.24
2023-03-06T03:01:48.353Z,26.21
2023-03-06T03:02:48.286Z,26.24
2023-03-06T03:03:48.228Z,26.23
2023-03-06T03:04:48.342Z,26.23
2023-03-06T03:05:48.128Z,26.21
2023-03-06T03:06:48.086Z,26.21
2023-03-06T03:07:48.069Z,26.23
2023-03-06T03:08:47.993Z,26.21
2023-03-06T03:09:47.955Z,26.24
2023-03-06T03:10:47.915Z,26.21
2023-03-06T03:11:47.872Z,26.23
2023-03-06T03:12:47.858Z,26.20
2023-03-06T03:13:47.773Z,26.21
2023-03-06T03:14:47.722Z,26.21
2023-03-06T03:15:47.697Z,26.21
2023-03-06T03:16:47.637Z,26.21
2023-03-06T03:17:47.615Z,26.21
2023-03-06T03:18:47.578Z,26.24
2023-03-06T03:19:47.498Z,26.21
2023-03-06T03:20:47.540Z,26.21
2023-03-06T03:21:47.399Z,26.21
2023-03-06T03:22:47.353Z,26.23
2023-03-06T03:23:47.308Z,26.20
2023-03-06T03:24:47.278Z,26.24
2023-03-06T03:25:47.219Z,26.21
2023-03-06T03:26:47.174Z,26.20
2023-03-06T03:27:47.161Z,26.20
2023-03-06T03:28:47.075Z,26.20
2023-03-06T03:29:47.028Z,26.21
2023-03-06T03:30:47.006Z,26.20
2023-03-06T03:31:46.953Z,26.21
2023-03-06T03:32:46.985Z,26.21
2023-03-06T03:33:46.849Z,26.21
2023-03-06T03:34:46.817Z,26.23
2023-03-06T03:35:46.801Z,26.21
2023-03-06T03:36:46.731Z,26.21
2023-03-06T03:37:46.651Z,26.23
2023-03-06T03:38:46.613Z,26.20
2023-03-06T03:39:46.559Z,26.20
2023-03-06T03:40:46.521Z,26.20
2023-03-06T03:41:46.499Z,26.18
2023-03-06T03:42:46.422Z,26.20
2023-03-06T03:43:46.367Z,26.23
2023-03-06T03:44:46.328Z,26.20
2023-03-06T03:45:46.277Z,26.18
2023-03-06T03:46:46.272Z,26.20
2023-03-06T03:47:46.186Z,26.21
2023-03-06T03:48:46.138Z,26.18
2023-03-06T03:49:46.096Z,26.18
2023-03-06T03:50:46.082Z,26.18
2023-03-06T03:51:46.005Z,26.21
2023-03-06T03:52:45.987Z,26.18
2023-03-06T03:53:45.915Z,26.20
2023-03-06T03:54:45.875Z,26.20
2023-03-06T03:55:45.828Z,26.20
2023-03-06T03:56:45.805Z,26.18
2023-03-06T03:57:45.741Z,26.20
2023-03-06T03:58:45.683Z,26.18
2023-03-06T03:59:45.655Z,26.21
2023-03-06T04:00:45.609Z,26.18
2023-03-06T04:01:45.612Z,26.20
2023-03-06T04:02:45.511Z,26.20
2023-03-06T04:03:45.464Z,26.20
2023-03-06T04:04:45.554Z,26.18
2023-03-06T04:05:45.370Z,26.21
2023-03-06T04:06:45.353Z,26.20
2023-03-06T04:07:45.299Z,26.18
2023-03-06T04:08:45.236Z,26.18
2023-03-06T04:09:45.187Z,26.21
2023-03-06T04:10:45.141Z,26.18
2023-03-06T04:11:45.100Z,26.20
2023-03-06T04:12:45.089Z,26.20
2023-03-06T04:13:45.001Z,26.21
2023-03-06T04:14:44.958Z,26.20
2023-03-06T04:15:44.914Z,26.21
2023-03-06T04:16:44.881Z,26.21
2023-03-06T04:17:44.834Z,26.20
2023-03-06T04:18:44.786Z,26.18
2023-03-06T04:19:44.785Z,26.23
2023-03-06T04:20:45.110Z,26.17
2023-03-06T04:21:44.650Z,26.20
2023-03-06T04:22:44.654Z,26.18
2023-03-06T04:23:44.566Z,26.18
2023-03-06T04:24:44.580Z,26.18
2023-03-06T04:25:44.502Z,26.20
2023-03-06T04:26:44.434Z,26.20
2023-03-06T04:27:44.384Z,26.20
2023-03-06T04:28:44.383Z,26.18
2023-03-06T04:29:44.296Z,26.20
2023-03-06T04:30:44.254Z,26.17
2023-03-06T04:31:44.316Z,26.18
2023-03-06T04:32:44.245Z,26.20
2023-03-06T04:33:44.112Z,26.18
2023-03-06T04:34:44.067Z,26.18
2023-03-06T04:35:44.040Z,26.18
2023-03-06T04:36:43.978Z,26.20
2023-03-06T04:37:43.930Z,26.18
2023-03-06T04:38:43.971Z,26.17
2023-03-06T04:39:43.869Z,26.18
2023-03-06T04:40:44.954Z,26.18
2023-03-06T04:41:43.753Z,26.21
2023-03-06T04:42:43.700Z,26.20
2023-03-06T04:43:43.659Z,26.17
2023-03-06T04:44:43.613Z,26.18
2023-03-06T04:45:43.619Z,26.21
2023-03-06T04:46:43.526Z,26.18
2023-03-06T04:47:43.482Z,26.21
2023-03-06T04:48:43.500Z,26.20
2023-03-06T04:49:43.405Z,26.18
2023-03-06T04:50:43.354Z,26.18
2023-03-06T04:51:43.338Z,26.20
2023-03-06T04:52:43.259Z,26.21
2023-03-06T04:53:43.201Z,26.20
2023-03-06T04:54:43.256Z,26.20
2023-03-06T04:55:43.140Z,26.17
2023-03-06T04:56:43.060Z,26.21
2023-03-06T04:57:43.009Z,26.20
2023-03-06T04:58:42.960Z,26.20
2023-03-06T04:59:42.923Z,26.18
2023-03-06T05:00:42.923Z,26.20
2023-03-06T05:01:42.846Z,26.21
2023-03-06T05:02:42.830Z,26.18
2023-03-06T05:03:42.760Z,26.20
2023-03-06T05:04:42.756Z,26.20
2023-03-06T05:05:42.674Z,26.20
2023-03-06T05:06:42.638Z,26.18
2023-03-06T05:07:42.594Z,26.18
2023-03-06T05:08:42.554Z,26.21
2023-03-06T05:09:42.508Z,26.18
2023-03-06T05:10:42.540Z,26.18
2023-03-06T05:11:42.432Z,26.20
2023-03-06T05:12:42.390Z,26.20
2023-03-06T05:13:42.346Z,26.18
2023-03-06T05:14:42.304Z,26.20
2023-03-06T05:15:42.298Z,26.18
2023-03-06T05:16:42.274Z,26.20
2023-03-06T05:17:42.168Z,26.21
2023-03-06T05:18:42.163Z,26.20
2023-03-06T05:19:42.084Z,26.21
2023-03-06T05:20:42.042Z,26.20
2023-03-06T05:21:42.000Z,26.21
2023-03-06T05:22:41.970Z,26.21
2023-03-06T05:23:41.924Z,26.18
2023-03-06T05:24:41.882Z,26.21
2023-03-06T05:25:41.853Z,26.17
2023-03-06T05:26:41.813Z,26.18
2023-03-06T05:27:41.736Z,26.18
2023-03-06T05:28:41.701Z,26.20
2023-03-06T05:29:41.659Z,26.17
2023-03-06T05:30:41.618Z,26.20
2023-03-06T05:31:41.627Z,26.21
2023-03-06T05:32:41.695Z,26.20
2023-03-06T05:33:41.475Z,26.18
2023-03-06T05:34:41.436Z,26.18
2023-03-06T05:35:41.469Z,26.18
2023-03-06T05:36:41.358Z,26.18
2023-03-06T05:37:41.337Z,26.18
2023-03-06T05:38:41.261Z,26.21
2023-03-06T05:39:41.209Z,26.20
2023-03-06T05:40:41.177Z,26.18
2023-03-06T05:41:41.112Z,26.20
2023-03-06T05:42:41.096Z,26.21
2023-03-06T05:43:41.024Z,26.20
2023-03-06T05:44:40.967Z,26.20
2023-03-06T05:45:41.000Z,26.20
2023-03-06T05:46:40.878Z,26.21
2023-03-06T05:47:40.835Z,26.17
2023-03-06T05:48:40.873Z,26.20
2023-03-06T05:49:40.739Z,26.18
2023-03-06T05:50:40.725Z,26.18
2023-03-06T05:51:40.656Z,26.18
2023-03-06T05:52:40.611Z,26.18
2023-03-06T05:53:40.562Z,26.18
2023-03-06T05:54:40.521Z,26.18
2023-03-06T05:55:40.471Z,26.18
2023-03-06T05:56:42.781Z,26.18
2023-03-06T05:57:40.389Z,26.18
2023-03-06T05:58:40.370Z,26.17
2023-03-06T05:59:40.314Z,26.17
2023-03-06T06:00:40.277Z,26.17
2023-03-06T06:01:40.229Z,26.17
2023-03-06T06:02:40.273Z,26.17
2023-03-06T06:03:40.182Z,26.21
2023-03-06T06:04:40.133Z,26.20
2023-03-06T06:05:40.076Z,26.18
2023-03-06T06:06:40.035Z,26.18
2023-03-06T06:07:39.991Z,26.18
2023-03-06T06:08:39.943Z,26.21
2023-03-06T06:09:39.898Z,26.20
2023-03-06T06:10:39.856Z,26.20
2023-03-06T06:11:39.814Z,26.20
2023-03-06T06:12:39.791Z,26.17
2023-03-06T06:13:39.756Z,26.21
2023-03-06T06:14:39.767Z,26.20
2023-03-06T06:15:39.690Z,26.20
2023-03-06T06:16:39.629Z,26.18
2023-03-06T06:17:39.666Z,26.18
2023-03-06T06:18:41.256Z,26.21
2023-03-06T06:19:39.496Z,26.18
2023-03-06T06:20:39.445Z,26.17
2023-03-06T06:21:39.412Z,26.16
2023-03-06T06:22:39.378Z,26.16
2023-03-06T06:23:39.330Z,26.18
2023-03-06T06:24:39.283Z,26.23
2023-03-06T06:25:39.264Z,26.20
2023-03-06T06:26:39.211Z,26.21
2023-03-06T06:27:39.200Z,26.21
2023-03-06T06:28:39.140Z,26.08
2023-03-06T06:29:39.072Z,26.14
2023-03-06T06:30:39.046Z,26.17
2023-03-06T06:31:38.971Z,26.07
2023-03-06T06:32:38.971Z,26.17
2023-03-06T06:33:38.890Z,26.17
2023-03-06T06:34:38.846Z,26.18
2023-03-06T06:35:38.851Z,26.20
2023-03-06T06:36:38.761Z,26.23
2023-03-06T06:37:39.684Z,26.24
2023-03-06T06:38:38.654Z,26.26
2023-03-06T06:39:38.608Z,26.26
2023-03-06T06:40:38.567Z,26.27
2023-03-06T06:41:56.955Z,26.26
2023-03-06T06:42:40.282Z,26.30
2023-03-06T06:43:38.397Z,26.28
2023-03-06T06:44:38.897Z,26.30
2023-03-06T06:45:38.304Z,26.32
2023-03-06T06:47:38.382Z,26.34
2023-03-06T06:48:38.149Z,26.27
2023-03-06T06:49:38.109Z,26.27
2023-03-06T06:50:38.055Z,26.28
2023-03-06T06:51:38.193Z,26.32
2023-03-06T06:52:37.972Z,26.32
2023-03-06T06:53:39.778Z,26.35
2023-03-06T06:54:38.655Z,26.34
2023-03-06T06:55:37.903Z,26.35
2023-03-06T06:56:40.995Z,26.31
2023-03-06T06:57:37.737Z,26.37
2023-03-06T06:58:37.699Z,26.38
2023-03-06T06:59:38.172Z,26.37
2023-03-06T07:00:37.705Z,26.37
2023-03-06T07:01:37.688Z,26.38
2023-03-06T07:02:37.525Z,26.37
2023-03-06T07:03:37.459Z,26.39
2023-03-06T07:04:37.391Z,26.41
2023-03-06T07:05:44.739Z,26.41
2023-03-06T07:06:37.647Z,26.41
2023-03-06T07:07:37.246Z,26.42
2023-03-06T07:08:37.200Z,26.39
2023-03-06T07:09:37.140Z,26.41
2023-03-06T07:10:37.091Z,26.41
2023-03-06T07:11:37.226Z,26.41
2023-03-06T07:12:36.993Z,26.42
2023-03-06T07:13:37.317Z,26.39
2023-03-06T07:14:36.946Z,26.39
2023-03-06T07:15:36.965Z,26.37
2023-03-06T07:16:36.809Z,26.39
2023-03-06T07:17:37.198Z,26.39
2023-03-06T07:18:37.159Z,26.38
2023-03-06T07:19:37.995Z,26.42
2023-03-06T07:20:36.649Z,26.38
2023-03-06T07:21:36.653Z,26.38
2023-03-06T07:22:49.943Z,26.37
2023-03-06T07:23:36.486Z,26.37
2023-03-06T07:24:36.397Z,26.38
2023-03-06T07:25:36.353Z,26.37
2023-03-06T07:26:36.624Z,26.38
2023-03-06T07:27:36.316Z,26.38
2023-03-06T07:28:51.184Z,26.35
2023-03-06T07:29:36.189Z,26.37
2023-03-06T07:30:37.163Z,26.32
2023-03-06T07:31:36.224Z,26.37
2023-03-06T07:32:36.109Z,26.37
2023-03-06T07:33:35.989Z,26.37
2023-03-06T07:34:36.270Z,26.38
2023-03-06T07:35:36.001Z,26.37
2023-03-06T07:36:35.839Z,26.37
2023-03-06T07:37:35.810Z,26.37
2023-03-06T07:38:35.741Z,26.37
2023-03-06T07:39:36.152Z,26.37
2023-03-06T07:40:35.649Z,26.38
2023-03-06T07:41:35.610Z,26.35
2023-03-06T07:42:35.552Z,26.37
2023-03-06T07:43:35.502Z,26.38
2023-03-06T07:44:35.655Z,26.37
2023-03-06T07:45:35.408Z,26.37
2023-03-06T07:46:35.460Z,26.38
2023-03-06T07:47:35.683Z,26.35
2023-03-06T07:48:35.281Z,26.38
2023-03-06T07:49:35.240Z,26.37
2023-03-06T07:50:35.682Z,26.38
2023-03-06T07:51:35.161Z,26.37
2023-03-06T07:52:35.106Z,26.38
2023-03-06T07:53:35.058Z,26.38
2023-03-06T07:54:35.072Z,26.37
2023-03-06T07:55:35.136Z,26.38
2023-03-06T07:56:35.019Z,26.38
2023-03-06T07:57:35.160Z,26.37
2023-03-06T07:58:34.838Z,26.38
2023-03-06T07:59:34.769Z,26.35
2023-03-06T08:00:35.179Z,26.35
2023-03-06T08:01:34.673Z,26.35
2023-03-06T08:02:34.727Z,26.35
2023-03-06T08:03:34.642Z,26.34
2023-03-06T08:04:37.729Z,26.35
2023-03-06T08:05:34.480Z,26.35
2023-03-06T08:06:34.628Z,26.39
2023-03-06T08:07:34.666Z,26.34
2023-03-06T08:08:34.337Z,26.37
2023-03-06T08:09:34.317Z,26.37
2023-03-06T08:10:34.292Z,26.37
2023-03-06T08:11:34.271Z,26.35
2023-03-06T08:12:34.179Z,26.34
2023-03-06T08:13:34.178Z,26.35
2023-03-06T08:14:34.082Z,26.35
2023-03-06T08:15:34.035Z,26.37
2023-03-06T08:16:34.294Z,26.34
2023-03-06T08:17:33.920Z,26.38
2023-03-06T08:18:34.154Z,26.38
2023-03-06T08:19:33.818Z,26.38
2023-03-06T08:20:33.782Z,26.34
2023-03-06T08:21:33.817Z,26.37
2023-03-06T08:22:33.719Z,26.35
2023-03-06T08:23:33.676Z,26.38
2023-03-06T08:24:33.597Z,26.34
2023-03-06T08:25:33.612Z,26.37
2023-03-06T08:26:33.484Z,26.34
2023-03-06T08:27:33.439Z,26.37
2023-03-06T08:28:33.676Z,26.38
2023-03-06T08:29:33.333Z,26.35
2023-03-06T08:30:34.275Z,26.38
2023-03-06T08:31:33.342Z,26.39
2023-03-06T08:32:33.758Z,26.38
2023-03-06T08:33:33.142Z,26.39
2023-03-06T08:34:33.074Z,26.38
2023-03-06T08:35:33.088Z,26.21
2023-03-06T08:36:32.991Z,26.27
2023-03-06T08:37:32.991Z,26.27
2023-03-06T08:38:33.215Z,26.34
2023-03-06T08:39:32.865Z,26.32
2023-03-06T08:40:33.452Z,26.34
2023-03-06T08:41:32.743Z,26.38
2023-03-06T08:42:32.707Z,26.39
2023-03-06T08:43:32.682Z,26.31
2023-03-06T08:44:32.578Z,26.44
2023-03-06T08:45:32.561Z,26.48
2023-03-06T08:46:32.499Z,26.48
2023-03-06T08:47:32.663Z,26.51
2023-03-06T08:48:32.375Z,26.54
2023-03-06T08:49:32.675Z,26.56
2023-03-06T08:50:32.270Z,26.58
2023-03-06T08:51:32.217Z,26.63
2023-03-06T08:52:32.156Z,26.63
2023-03-06T08:53:42.600Z,26.63
2023-03-06T08:54:32.153Z,26.66
2023-03-06T08:55:32.288Z,26.63
2023-03-06T08:56:32.260Z,26.68
2023-03-06T08:57:31.938Z,26.69
2023-03-06T08:58:32.184Z,26.72
2023-03-06T08:59:31.812Z,26.79
2023-03-06T09:00:31.840Z,26.79
2023-03-06T09:01:31.843Z,26.82
2023-03-06T09:02:31.732Z,26.82
2023-03-06T09:03:31.653Z,26.85
2023-03-06T09:04:31.567Z,26.86
2023-03-06T09:05:31.495Z,26.89
2023-03-06T09:06:31.451Z,26.91
2023-03-06T09:07:31.397Z,26.91
2023-03-06T09:08:31.657Z,26.94
2023-03-06T09:09:31.294Z,26.96
2023-03-06T09:10:31.267Z,26.96
2023-03-06T09:11:31.661Z,26.99
2023-03-06T09:12:37.377Z,26.99
2023-03-06T09:13:31.088Z,27.01
2023-03-06T09:14:31.028Z,27.01
2023-03-06T09:15:30.971Z,27.01
2023-03-06T09:16:30.937Z,27.04
2023-03-06T09:17:30.905Z,27.00
2023-03-06T09:18:30.819Z,27.06
2023-03-06T09:19:31.171Z,27.04
2023-03-06T09:20:30.705Z,27.06
2023-03-06T09:21:30.682Z,27.08
2023-03-06T09:22:30.605Z,27.07
2023-03-06T09:23:30.672Z,27.10
2023-03-06T09:24:30.736Z,27.11
2023-03-06T09:25:30.468Z,27.10
2023-03-06T09:26:45.085Z,27.10
2023-03-06T09:27:31.351Z,27.10
2023-03-06T09:28:30.465Z,27.13
2023-03-06T09:29:30.677Z,27.13
2023-03-06T09:30:30.261Z,27.17
2023-03-06T09:31:30.137Z,27.15
2023-03-06T09:32:30.185Z,27.15
2023-03-06T09:33:30.047Z,27.17
2023-03-06T09:34:30.000Z,27.18
2023-03-06T09:35:29.924Z,27.20
2023-03-06T09:36:30.209Z,27.18
2023-03-06T09:37:29.818Z,27.20
2023-03-06T09:38:29.765Z,27.20
2023-03-06T09:39:30.191Z,27.23
2023-03-06T09:40:29.797Z,27.23
2023-03-06T09:41:29.692Z,27.27
2023-03-06T09:42:29.700Z,27.25
2023-03-06T09:43:29.520Z,27.24
2023-03-06T09:44:29.677Z,27.27
2023-03-06T09:45:29.383Z,27.24
2023-03-06T09:46:29.794Z,27.14
2023-03-06T09:47:32.470Z,27.04
2023-03-06T09:48:29.262Z,26.99
2023-03-06T09:49:29.195Z,26.94
2023-03-06T09:50:29.116Z,26.87
2023-03-06T09:51:29.062Z,26.89
2023-03-06T09:52:29.011Z,26.86
2023-03-06T09:53:28.982Z,26.89
2023-03-06T09:54:29.177Z,26.90
2023-03-06T09:55:28.885Z,26.93
2023-03-06T09:56:29.262Z,26.96
2023-03-06T09:57:28.745Z,27.00
2023-03-06T09:58:28.749Z,27.03
2023-03-06T09:59:28.664Z,27.04
2023-03-06T10:00:28.585Z,27.08
2023-03-06T10:01:28.621Z,27.08
2023-03-06T10:02:28.753Z,27.14
2023-03-06T10:03:28.464Z,27.15
2023-03-06T10:04:28.398Z,27.15
2023-03-06T10:05:28.680Z,27.21
2023-03-06T10:06:28.259Z,27.20
2023-03-06T10:07:28.236Z,27.21
2023-03-06T10:08:28.180Z,27.21
2023-03-06T10:09:28.089Z,27.25
2023-03-06T10:10:28.192Z,27.25
2023-03-06T10:11:27.965Z,27.27
2023-03-06T10:12:28.179Z,27.30
2023-03-06T10:13:27.853Z,27.30
2023-03-06T10:14:27.853Z,27.28
2023-03-06T10:15:27.783Z,27.33
2023-03-06T10:16:27.691Z,27.33
2023-03-06T10:17:27.668Z,27.30
2023-03-06T10:18:27.707Z,27.31
2023-03-06T10:19:27.503Z,27.33
2023-03-06T10:20:27.686Z,27.38
2023-03-06T10:21:27.498Z,27.38
2023-03-06T10:22:27.401Z,27.40
2023-03-06T10:23:27.306Z,27.38
2023-03-06T10:24:27.254Z,27.38
2023-03-06T10:25:27.258Z,27.35
2023-03-06T10:26:27.189Z,27.37
2023-03-06T10:27:29.062Z,27.37
2023-03-06T10:28:27.013Z,27.38
2023-03-06T10:29:26.968Z,27.40
2023-03-06T10:30:27.281Z,27.38
2023-03-06T10:31:26.860Z,27.40
2023-03-06T10:32:29.030Z,27.40
2023-03-06T10:33:27.003Z,27.38
2023-03-06T10:34:26.722Z,27.38
2023-03-06T10:35:28.635Z,27.40
2023-03-06T10:36:26.840Z,27.41
2023-03-06T10:37:26.480Z,27.40
2023-03-06T10:38:29.607Z,27.34
2023-03-06T10:39:27.372Z,27.41
2023-03-06T10:40:26.279Z,27.38
2023-03-06T10:41:26.697Z,27.40
2023-03-06T10:42:28.887Z,27.40
2023-03-06T10:43:26.464Z,27.38
2023-03-06T10:44:26.056Z,27.38
2023-03-06T10:45:26.299Z,27.40
2023-03-06T10:46:26.283Z,27.34
2023-03-06T10:47:25.881Z,27.35
2023-03-06T10:48:26.208Z,27.35
2023-03-06T10:49:26.207Z,27.33
2023-03-06T10:50:26.689Z,27.30
2023-03-06T10:51:25.639Z,27.31
2023-03-06T10:52:25.574Z,27.31
2023-03-06T10:53:25.708Z,27.30
2023-03-06T10:54:25.455Z,27.28
2023-03-06T10:55:25.423Z,27.30
2023-03-06T10:56:25.331Z,27.27
2023-03-06T10:57:25.293Z,27.27
2023-03-06T10:58:25.734Z,27.24
2023-03-06T10:59:25.750Z,27.25
2023-03-06T11:00:25.132Z,27.25
2023-03-06T11:01:25.157Z,27.25
2023-03-06T11:02:25.019Z,27.20
2023-03-06T11:03:25.223Z,27.23
2023-03-06T11:04:24.973Z,27.23
2023-03-06T11:05:24.877Z,27.20
2023-03-06T11:06:24.786Z,27.24
2023-03-06T11:07:26.102Z,27.21
2023-03-06T11:08:24.688Z,27.23
2023-03-06T11:09:24.665Z,27.23
2023-03-06T11:10:24.582Z,27.21
2023-03-06T11:11:36.912Z,27.21
2023-03-06T11:12:24.478Z,27.24
2023-03-06T11:13:24.411Z,27.24
2023-03-06T11:14:27.200Z,27.15
2023-03-06T11:15:24.308Z,27.15
2023-03-06T11:16:25.970Z,27.10
2023-03-06T11:17:24.222Z,27.10
2023-03-06T11:18:24.174Z,27.08
2023-03-06T11:19:24.215Z,27.11
2023-03-06T11:20:24.040Z,27.07
2023-03-06T11:21:23.990Z,27.06
2023-03-06T11:22:23.936Z,27.07
2023-03-06T11:23:24.217Z,27.08
2023-03-06T11:24:24.241Z,27.06
2023-03-06T11:25:23.774Z,27.04
2023-03-06T11:26:24.709Z,27.07
2023-03-06T11:27:23.663Z,27.06
2023-03-06T11:28:23.715Z,27.06
2023-03-06T11:29:23.807Z,27.04
2023-03-06T11:30:23.492Z,27.03
2023-03-06T11:31:23.736Z,27.03
2023-03-06T11:32:23.787Z,27.04
2023-03-06T11:33:23.946Z,27.03
2023-03-06T11:34:23.705Z,27.03
2023-03-06T11:35:23.333Z,27.04
2023-03-06T11:36:23.155Z,27.00
2023-03-06T11:37:23.212Z,26.99
2023-03-06T11:38:23.040Z,27.00
2023-03-06T11:39:22.989Z,27.00
2023-03-06T11:40:22.965Z,27.00
2023-03-06T11:41:22.892Z,27.01
2023-03-06T11:42:22.806Z,27.00
2023-03-06T11:43:23.218Z,27.00
2023-03-06T11:44:22.700Z,26.99
2023-03-06T11:45:22.684Z,26.99
2023-03-06T11:46:22.909Z,26.97
2023-03-06T11:47:22.567Z,26.97
2023-03-06T11:48:22.680Z,26.96
2023-03-06T11:49:22.444Z,26.96
2023-03-06T11:50:22.421Z,26.96
2023-03-06T11:51:22.381Z,26.96
2023-03-06T11:52:22.715Z,26.93
2023-03-06T11:53:22.787Z,26.94
2023-03-06T11:54:22.222Z,26.94
2023-03-06T11:55:22.125Z,26.94
2023-03-06T11:56:22.080Z,26.96
2023-03-06T11:57:22.221Z,26.94
2023-03-06T11:58:21.965Z,26.94
2023-03-06T11:59:22.223Z,26.91
2023-03-06T12:00:21.848Z,26.93
2023-03-06T12:01:21.811Z,26.91
2023-03-06T12:02:21.854Z,26.93
2023-03-06T12:03:21.724Z,26.90
2023-03-06T12:04:21.646Z,26.91
2023-03-06T12:05:21.640Z,26.91
2023-03-06T12:06:21.582Z,26.91
2023-03-06T12:07:21.491Z,26.91
2023-03-06T12:08:21.722Z,26.93
2023-03-06T12:09:21.771Z,26.90
2023-03-06T12:10:21.320Z,26.90
2023-03-06T12:11:22.234Z,26.90
2023-03-06T12:12:21.226Z,26.91
2023-03-06T12:13:21.163Z,26.90
2023-03-06T12:14:21.471Z,26.90
2023-03-06T12:15:21.054Z,26.90
2023-03-06T12:16:21.055Z,26.89
2023-03-06T12:17:20.964Z,26.89
2023-03-06T12:18:20.901Z,26.90
2023-03-06T12:19:21.225Z,26.89
2023-03-06T12:20:21.229Z,26.89
2023-03-06T12:21:20.747Z,26.89
2023-03-06T12:22:20.757Z,26.89
2023-03-06T12:23:20.659Z,26.89
2023-03-06T12:24:20.603Z,26.90
2023-03-06T12:25:20.547Z,26.89
2023-03-06T12:26:20.496Z,26.90
2023-03-06T12:27:20.732Z,26.90
2023-03-06T12:28:20.398Z,26.87
2023-03-06T12:29:20.744Z,26.89
2023-03-06T12:30:20.298Z,26.89
2023-03-06T12:31:20.298Z,26.89
2023-03-06T12:32:20.225Z,26.87
2023-03-06T12:33:20.146Z,26.90
2023-03-06T12:34:20.257Z,26.86
2023-03-06T12:35:20.123Z,26.87
2023-03-06T12:36:20.014Z,26.90
2023-03-06T12:37:20.235Z,26.87
2023-03-06T12:38:19.944Z,26.87
2023-03-06T12:39:19.862Z,26.87
2023-03-06T12:40:19.825Z,26.87
2023-03-06T12:41:19.824Z,26.86
2023-03-06T12:42:23.517Z,26.86
2023-03-06T12:43:19.662Z,26.86
2023-03-06T12:44:19.600Z,26.86
2023-03-06T12:45:19.744Z,26.86
2023-03-06T12:46:19.622Z,26.86
2023-03-06T12:47:19.471Z,26.85
2023-03-06T12:48:19.466Z,26.86
2023-03-06T12:49:31.074Z,26.86
2023-03-06T12:50:19.740Z,26.86
2023-03-06T12:51:19.285Z,26.86
2023-03-06T12:52:21.650Z,26.86
2023-03-06T12:53:19.192Z,26.85
2023-03-06T12:54:19.213Z,26.85
2023-03-06T12:55:22.677Z,26.83
2023-03-06T12:56:19.224Z,26.85
2023-03-06T12:57:19.653Z,26.85
2023-03-06T12:58:19.742Z,26.83
2023-03-06T12:59:19.067Z,26.83
2023-03-06T13:00:19.251Z,26.83
2023-03-06T13:01:19.384Z,26.83
2023-03-06T13:02:18.993Z,26.82
2023-03-06T13:03:19.248Z,26.85
2023-03-06T13:04:18.835Z,26.83
2023-03-06T13:05:18.810Z,26.80
2023-03-06T13:06:18.739Z,26.86
2023-03-06T13:07:18.727Z,26.86
2023-03-06T13:08:18.750Z,26.83
2023-03-06T13:09:18.588Z,26.85
2023-03-06T13:10:18.565Z,26.85
2023-03-06T13:11:18.946Z,26.85
2023-03-06T13:12:18.485Z,26.85
2023-03-06T13:13:18.749Z,26.83
2023-03-06T13:14:18.459Z,26.86
2023-03-06T13:15:18.292Z,26.83
2023-03-06T13:16:18.324Z,26.85
2023-03-06T13:17:18.197Z,26.85
2023-03-06T13:18:18.144Z,26.85
2023-03-06T13:19:18.259Z,26.87
2023-03-06T13:20:18.045Z,26.83
2023-03-06T13:21:17.996Z,26.87
2023-03-06T13:22:17.950Z,26.85
2023-03-06T13:23:17.896Z,26.85
2023-03-06T13:24:17.855Z,26.85
2023-03-06T13:25:17.818Z,26.85
2023-03-06T13:26:17.889Z,26.83
2023-03-06T13:27:17.705Z,26.83
2023-03-06T13:28:18.064Z,26.83
2023-03-06T13:29:17.601Z,26.86
2023-03-06T13:30:17.758Z,26.85
2023-03-06T13:31:26.842Z,26.86
2023-03-06T13:32:17.861Z,26.87
2023-03-06T13:33:17.428Z,26.85
2023-03-06T13:34:17.356Z,26.86
2023-03-06T13:35:17.307Z,26.86
2023-03-06T13:36:17.252Z,26.85
2023-03-06T13:37:17.342Z,26.85
2023-03-06T13:38:17.165Z,26.85
2023-03-06T13:39:17.089Z,26.83
2023-03-06T13:40:17.484Z,26.85
2023-03-06T13:41:16.982Z,26.85
2023-03-06T13:42:16.976Z,26.83
2023-03-06T13:43:17.279Z,26.82
2023-03-06T13:44:16.821Z,26.83
2023-03-06T13:45:16.993Z,26.82
2023-03-06T13:46:16.734Z,26.85
2023-03-06T13:47:16.672Z,26.80